Time;durP1;ratioP1;P1;durP2;ratioP2;P2;SDS_P1;SDS_P2;PMS_P1;PMS_P2;Temp;Humidity;BMP_temperature;BMP_pressure;BME280_temperature;BME280_humidity;BME280_pressure;Samples;Min_cycle;Max_cycle;Signal;HPM_P1;HPM_P2
2023/05/08 00:01:41;;;;;;;3.03;1.95;;;;;;;;;;5018702;28;20025;-81
2023/05/08 00:04:07;;;;;;;3.38;1.75;;;;;;;;;;5022533;28;20037;-81
2023/05/08 00:06:33;;;;;;;2.63;1.40;;;;;;;;;;5022321;28;20029;-82
2023/05/08 00:08:59;;;;;;;2.55;1.42;;;;;;;;;;5023134;28;20036;-81
2023/05/08 00:11:25;;;;;;;2.47;1.40;;;;;;;;;;5020819;28;20026;-83
2023/05/08 00:13:51;;;;;;;3.85;2.15;;;;;;;;;;5017562;28;20026;-82
2023/05/08 00:16:17;;;;;;;4.25;2.38;;;;;;;;;;5022044;28;20054;-83
2023/05/08 00:18:43;;;;;;;3.33;1.70;;;;;;;;;;5016902;28;20033;-81
2023/05/08 00:21:09;;;;;;;4.57;2.38;;;;;;;;;;5024588;28;20040;-81
2023/05/08 00:23:35;;;;;;;4.90;2.15;;;;;;;;;;5022103;28;20071;-80
2023/05/08 00:26:01;;;;;;;3.75;1.83;;;;;;;;;;5022786;28;20111;-82
2023/05/08 00:28:27;;;;;;;2.50;1.88;;;;;;;;;;5026085;28;20037;-82
2023/05/08 00:30:53;;;;;;;3.75;1.75;;;;;;;;;;5020992;28;20099;-83
2023/05/08 00:33:19;;;;;;;2.60;1.55;;;;;;;;;;5019990;28;20083;-82
2023/05/08 00:35:45;;;;;;;3.17;1.60;;;;;;;;;;5021066;28;20040;-82
2023/05/08 00:38:11;;;;;;;3.00;1.77;;;;;;;;;;5026073;28;20025;-82
2023/05/08 00:40:37;;;;;;;3.55;1.83;;;;;;;;;;5024625;28;20039;-83
2023/05/08 00:43:03;;;;;;;3.92;1.95;;;;;;;;;;5013194;28;20029;-82
2023/05/08 00:45:32;;;;;;;4.05;1.52;;;;;;;;;;5024146;28;20026;-82
2023/05/08 00:47:58;;;;;;;2.55;1.25;;;;;;;;;;5026017;28;20025;-81
2023/05/08 00:50:26;;;;;;;5.05;2.20;;;;;;;;;;5017857;28;20026;-81
2023/05/08 00:52:52;;;;;;;3.22;1.95;;;;;;;;;;5016467;28;20025;-81
2023/05/08 00:55:22;;;;;;;4.68;2.00;;;13.90;99.90;;;;;;5022430;28;20029;-80
2023/05/08 00:57:47;;;;;;;3.13;1.83;;;14.50;99.90;;;;;;5036577;28;20021;-81
2023/05/08 01:00:16;;;;;;;5.65;1.55;;;;;;;;;;5014869;28;20379;-83
2023/05/08 01:02:43;;;;;;;4.90;1.80;;;;;;;;;;5015702;28;20033;-81
2023/05/08 01:05:09;;;;;;;3.17;1.85;;;;;;;;;;5020864;28;20371;-81
2023/05/08 01:07:35;;;;;;;2.60;1.55;;;;;;;;;;5022856;28;20022;-81
2023/05/08 01:10:01;;;;;;;4.68;2.17;;;;;;;;;;5021615;28;20037;-83
2023/05/08 01:12:33;;;;;;;3.03;1.70;;;;;;;;;;5037411;28;20025;-80
2023/05/08 01:15:08;;;;;;;3.90;1.98;;;;;;;;;;5027902;28;20077;-80
2023/05/08 01:17:49;;;;;;;4.18;2.30;;;;;;;;;;5025084;28;20127;-80
2023/05/08 01:20:18;;;;;;;5.40;2.25;;;;;;;;;;5021286;28;20036;-81
2023/05/08 01:23:03;;;;;;;5.95;1.92;;;;;;;;;;5024329;28;20017;-82
2023/05/08 01:25:59;;;;;;;4.85;2.03;;;14.40;99.90;;;;;;5020094;28;20489;-82
2023/05/08 01:29:01;;;;;;;4.10;2.22;;;14.00;99.90;;;;;;5024940;28;20022;-83
2023/05/08 01:31:30;;;;;;;3.25;1.88;;;;;;;;;;5013972;28;20034;-82
2023/05/08 01:34:03;;;;;;;4.43;2.58;;;13.90;99.90;;;;;;5024240;28;20145;-83
2023/05/08 01:36:44;;;;;;;;;;;13.90;99.90;;;;;;5016989;28;20033;-83
2023/05/08 01:39:30;;;;;;;3.45;1.98;;;;;;;;;;5028963;28;19916;-83
2023/05/08 01:41:58;;;;;;;3.28;2.17;;;;;;;;;;5025221;28;20041;-83
2023/05/08 01:44:32;;;;;;;3.08;2.15;;;14.00;99.90;;;;;;5023311;28;20034;-82
2023/05/08 01:47:02;;;;;;;3.80;1.92;;;;;;;;;;5021887;28;20068;-83
2023/05/08 01:49:31;;;;;;;5.22;2.13;;;;;;;;;;5021510;28;20054;-82
2023/05/08 01:52:00;;;;;;;7.25;2.88;;;;;;;;;;5025878;28;20028;-82
2023/05/08 01:54:28;;;;;;;4.40;2.10;;;13.80;99.90;;;;;;5020178;28;20037;-81
2023/05/08 01:56:57;;;;;;;8.18;2.20;;;;;;;;;;5029105;28;20117;-83
2023/05/08 01:59:24;;;;;;;4.05;2.38;;;;;;;;;;5019738;28;20401;-82
2023/05/08 02:01:51;;;;;;;3.92;2.13;;;;;;;;;;5029614;28;20029;-81
2023/05/08 02:04:18;;;;;;;3.50;2.05;;;;;;;;;;5030324;28;20029;-82
2023/05/08 02:06:44;;;;;;;4.53;2.30;;;;;;;;;;5020895;28;20592;-83
2023/05/08 02:09:11;;;;;;;4.07;2.22;;;14.00;99.90;;;;;;5025652;28;20454;-82
2023/05/08 02:11:39;;;;;;;5.28;2.00;;;14.60;99.90;;;;;;5025016;28;20030;-83
2023/05/08 02:14:07;;;;;;;7.25;3.00;;;13.70;99.90;;;;;;5036858;28;20034;-82
2023/05/08 02:16:33;;;;;;;8.73;2.45;;;;;;;;;;5024971;28;20032;-80
2023/05/08 02:19:00;;;;;;;4.90;2.17;;;;;;;;;;5047344;28;20033;-81
2023/05/08 02:21:27;;;;;;;4.20;2.10;;;13.80;99.90;;;;;;5039121;28;20036;-80
2023/05/08 02:23:55;;;;;;;5.57;2.50;;;13.90;99.90;;;;;;5043807;28;20033;-82
2023/05/08 02:26:22;;;;;;;3.25;2.30;;;;;;;;;;5025859;28;20095;-82
2023/05/08 02:28:49;;;;;;;4.10;1.75;;;13.90;99.90;;;;;;5038001;28;20025;-83
2023/05/08 02:31:16;;;;;;;10.63;2.65;;;;;;;;;;5023968;28;20033;-85
2023/05/08 02:33:43;;;;;;;3.17;2.03;;;14.00;99.90;;;;;;5018558;28;20539;-82
2023/05/08 02:36:10;;;;;;;5.53;1.80;;;;;;;;;;5029028;28;20036;-82
2023/05/08 02:38:38;;;;;;;3.40;2.08;;;;;;;;;;5028192;28;20025;-82
2023/05/08 02:41:05;;;;;;;4.40;1.95;;;;;;;;;;5023852;28;20025;-81
2023/05/08 02:43:32;;;;;;;3.28;2.15;;;;;;;;;;5016198;28;20036;-84
2023/05/08 02:46:12;;;;;;;4.32;2.25;;;14.10;99.90;;;;;;5013175;28;20080;-82
2023/05/08 02:49:09;;;;;;;4.03;2.45;;;14.00;99.90;;;;;;5015260;28;20096;-82
2023/05/08 02:51:54;;;;;;;4.53;2.60;;;14.00;99.90;;;;;;5023633;28;20037;-80
2023/05/08 02:54:32;;;;;;;6.75;3.38;;;14.00;99.90;;;;;;5026504;28;20037;-81
2023/05/08 02:57:06;;;;;;;5.32;2.03;;;;;;;;;;5023921;28;20069;-82
2023/05/08 02:59:38;;;;;;;4.28;2.80;;;13.80;99.90;;;;;;5024853;28;20033;-82
2023/05/08 03:02:21;;;;;;;3.42;1.98;;;;;;;;;;5022214;28;20052;-82
2023/05/08 03:04:52;;;;;;;6.53;3.50;;;;;;;;;;5018255;28;20120;-83
2023/05/08 03:07:23;;;;;;;4.53;2.88;;;;;;;;;;5022895;28;20037;-84
2023/05/08 03:09:54;;;;;;;4.97;3.00;;;13.90;99.90;;;;;;5027041;28;20017;-84
2023/05/08 03:12:24;;;;;;;6.45;3.00;;;;;;;;;;5025750;28;20041;-83
2023/05/08 03:14:55;;;;;;;5.57;3.30;;;;;;;;;;5023421;28;20025;-81
2023/05/08 03:17:23;;;;;;;4.22;2.40;;;;;;;;;;5026501;28;20515;-83
2023/05/08 03:19:51;;;;;;;5.93;2.53;;;;;;;;;;5022101;28;20041;-83
2023/05/08 03:22:19;;;;;;;4.55;2.22;;;;;;;;;;5014945;28;20029;-82
2023/05/08 03:24:46;;;;;;;4.45;2.33;;;;;;;;;;5026330;28;20423;-83
2023/05/08 03:27:13;;;;;;;3.80;2.38;;;14.20;99.90;;;;;;5029773;28;20017;-82
2023/05/08 03:29:40;;;;;;;3.40;2.20;;;13.80;99.90;;;;;;5027029;28;20163;-83
2023/05/08 03:32:06;;;;;;;4.38;2.47;;;13.80;99.90;;;;;;5024467;28;20120;-83
2023/05/08 03:34:33;;;;;;;5.43;3.22;;;;;;;;;;5018793;28;20088;-80
2023/05/08 03:36:59;;;;;;;4.68;2.20;;;;;;;;;;5019969;28;20142;-83
2023/05/08 03:39:25;;;;;;;9.55;2.72;;;;;;;;;;5015685;28;20048;-82
2023/05/08 03:41:52;;;;;;;5.47;3.30;;;;;;;;;;5026945;28;21598;-84
2023/05/08 03:44:18;;;;;;;6.03;3.05;;;;;;;;;;5018066;28;20029;-84
2023/05/08 03:46:44;;;;;;;7.93;4.55;;;;;;;;;;5017926;28;20041;-84
2023/05/08 03:49:10;;;;;;;7.25;4.03;;;;;;;;;;5017996;28;20025;-82
2023/05/08 03:51:38;;;;;;;6.10;4.10;;;13.80;99.90;;;;;;5023664;28;21827;-82
2023/05/08 03:54:04;;;;;;;11.07;4.80;;;14.10;99.90;;;;;;5025448;28;20125;-82
2023/05/08 03:56:30;;;;;;;8.75;4.18;;;;;;;;;;5032415;28;20267;-82
2023/05/08 03:59:01;;;;;;;8.38;4.22;;;;;;;;;;5021041;28;20029;-81
2023/05/08 04:01:39;;;;;;;8.07;4.63;;;14.00;99.90;;;;;;5014657;28;20026;-82
2023/05/08 04:04:05;;;;;;;9.07;5.22;;;;;;;;;;5017833;28;20105;-83
2023/05/08 04:06:36;;;;;;;9.82;4.95;;;;;;;;;;5022563;28;20116;-83
2023/05/08 04:09:13;;;;;;;10.60;5.18;;;;;;;;;;5018590;28;20478;-82
2023/05/08 04:11:47;;;;;;;8.18;5.45;;;;;;;;;;5027186;28;20034;-83
2023/05/08 04:14:17;;;;;;;11.65;5.60;;;13.60;99.90;;;;;;5011499;28;21614;-81
2023/05/08 04:16:47;;;;;;;7.88;4.93;;;;;;;;;;5025603;28;20034;-82
2023/05/08 04:19:15;;;;;;;12.90;6.40;;;;;;;;;;5017818;28;20033;-82
2023/05/08 04:21:42;;;;;;;10.80;6.45;;;;;;;;;;5021170;28;20115;-82
2023/05/08 04:24:11;;;;;;;12.38;6.95;;;13.70;99.90;;;;;;5015248;28;20111;-81
2023/05/08 04:26:38;;;;;;;10.43;5.95;;;13.70;99.90;;;;;;5032409;28;20042;-81
2023/05/08 04:29:06;;;;;;;9.65;5.30;;;;;;;;;;5032287;28;20030;-82
2023/05/08 04:31:32;;;;;;;10.85;6.05;;;;;;;;;;5027364;28;20746;-82
2023/05/08 04:33:58;;;;;;;10.27;5.82;;;;;;;;;;5028026;28;20025;-82
2023/05/08 04:36:28;;;;;;;12.77;5.88;;;;;;;;;;5021828;28;20087;-82
2023/05/08 04:38:54;;;;;;;10.35;5.47;;;;;;;;;;5014687;28;20037;-82
2023/05/08 04:41:20;;;;;;;11.50;5.40;;;;;;;;;;5024354;28;20124;-84
2023/05/08 04:43:46;;;;;;;7.22;4.40;;;;;;;;;;5019537;28;20032;-83
2023/05/08 04:46:12;;;;;;;18.45;5.80;;;;;;;;;;5020535;28;20078;-82
2023/05/08 04:48:38;;;;;;;10.18;5.05;;;;;;;;;;5027814;28;20026;-83
2023/05/08 04:51:05;;;;;;;9.00;4.95;;;;;;;;;;5027536;28;20036;-82
2023/05/08 04:53:31;;;;;;;8.30;5.15;;;;;;;;;;5022386;28;20953;-82
2023/05/08 04:55:58;;;;;;;13.35;5.95;;;;;;;;;;5028444;28;20033;-82
2023/05/08 04:58:24;;;;;;;9.18;4.68;;;;;;;;;;5030210;28;20107;-82
2023/05/08 05:00:50;;;;;;;13.80;5.93;;;;;;;;;;5030277;28;20508;-82
2023/05/08 05:03:16;;;;;;;12.48;6.18;;;;;;;;;;5028129;28;20033;-82
2023/05/08 05:05:42;;;;;;;11.52;5.68;;;;;;;;;;5032499;28;20032;-82
2023/05/08 05:08:08;;;;;;;9.98;5.38;;;;;;;;;;5015610;28;20060;-82
2023/05/08 05:10:34;;;;;;;10.98;6.15;;;;;;;;;;5038610;28;20034;-80
2023/05/08 05:12:59;;;;;;;13.32;5.78;;;13.90;99.90;;;;;;5039531;28;20567;-81
2023/05/08 05:15:25;;;;;;;8.85;5.47;;;;;;;;;;5038851;28;20029;-82
2023/05/08 05:17:51;;;;;;;7.80;5.30;;;;;;;;;;5039832;28;20097;-82
2023/05/08 05:20:17;;;;;;;16.10;6.95;;;;;;;;;;5039214;28;20374;-81
2023/05/08 05:22:43;;;;;;;8.32;4.65;;;;;;;;;;5033456;28;20025;-81
2023/05/08 05:25:09;;;;;;;8.15;5.22;;;;;;;;;;5021579;28;20048;-81
2023/05/08 05:27:36;;;;;;;13.45;6.25;;;;;;;;;;5029628;28;20033;-82
2023/05/08 05:30:02;;;;;;;27.23;10.98;;;13.80;99.90;;;;;;5019823;28;20033;-82
2023/05/08 05:32:28;;;;;;;12.77;5.95;;;;;;;;;;5029658;28;20026;-81
2023/05/08 05:34:55;;;;;;;10.52;5.90;;;;;;;;;;5030574;28;20153;-82
2023/05/08 05:37:23;;;;;;;9.43;5.53;;;;;;;;;;5027577;28;20032;-81
2023/05/08 05:39:49;;;;;;;13.30;5.72;;;;;;;;;;5033319;28;20029;-81
2023/05/08 05:42:15;;;;;;;9.63;5.40;;;;;;;;;;5031569;28;20033;-81
2023/05/08 05:44:41;;;;;;;12.88;5.03;;;;;;;;;;5030675;28;20034;-80
2023/05/08 05:47:09;;;;;;;11.60;6.18;;;;;;;;;;5026130;28;20033;-81
2023/05/08 05:49:35;;;;;;;8.10;5.45;;;;;;;;;;5030302;28;20018;-81
2023/05/08 05:52:01;;;;;;;8.70;5.03;;;;;;;;;;5027924;28;20456;-80
2023/05/08 05:54:27;;;;;;;6.65;3.90;;;;;;;;;;5035106;28;20072;-80
2023/05/08 05:56:53;;;;;;;10.20;5.18;;;;;;;;;;5039284;28;20033;-80
2023/05/08 05:59:19;;;;;;;8.43;4.35;;;;;;;;;;5033745;28;20029;-80
2023/05/08 06:01:45;;;;;;;10.52;5.35;;;;;;;;;;5025759;28;20157;-80
2023/05/08 06:04:11;;;;;;;7.43;4.57;;;;;;;;;;5031641;28;20179;-81
2023/05/08 06:06:37;;;;;;;10.57;5.20;;;;;;;;;;5032410;28;20079;-81
2023/05/08 06:09:03;;;;;;;7.85;4.10;;;;;;;;;;5035677;28;20109;-80
2023/05/08 06:11:29;;;;;;;7.15;3.80;;;;;;;;;;5027739;28;20038;-81
2023/05/08 06:13:56;;;;;;;8.90;4.60;;;;;;;;;;5032063;28;20030;-81
2023/05/08 06:16:23;;;;;;;7.88;4.35;;;;;;;;;;5027633;28;20428;-80
2023/05/08 06:18:49;;;;;;;10.10;4.85;;;;;;;;;;5028873;28;20039;-81
2023/05/08 06:21:15;;;;;;;12.25;5.25;;;;;;;;;;5033702;28;20029;-81
2023/05/08 06:23:41;;;;;;;16.05;6.43;;;;;;;;;;5025611;28;20026;-81
2023/05/08 06:26:07;;;;;;;10.90;5.70;;;;;;;;;;5030520;28;20056;-81
2023/05/08 06:28:33;;;;;;;10.30;5.00;;;;;;;;;;5036150;28;20119;-81
2023/05/08 06:30:59;;;;;;;10.45;5.38;;;;;;;;;;5029096;28;20045;-80
2023/05/08 06:33:25;;;;;;;11.85;5.20;;;;;;;;;;5023845;28;20025;-80
2023/05/08 06:35:53;;;;;;;9.60;4.90;;;;;;;;;;5033472;28;20029;-82
2023/05/08 06:38:19;;;;;;;10.63;5.15;;;;;;;;;;5033317;28;20489;-81
2023/05/08 06:40:45;;;;;;;8.63;4.68;;;;;;;;;;5033900;28;20104;-82
2023/05/08 06:43:12;;;;;;;9.02;4.18;;;;;;;;;;5029610;28;20029;-80
2023/05/08 06:45:38;;;;;;;8.52;4.65;;;14.80;99.90;;;;;;5022456;28;20125;-81
2023/05/08 06:48:04;;;;;;;10.80;4.63;;;14.90;99.90;;;;;;5026997;28;20567;-81
2023/05/08 06:50:30;;;;;;;8.75;4.03;;;;;;;;;;5029626;28;20461;-80
2023/05/08 06:52:56;;;;;;;9.65;4.63;;;;;;;;;;5032194;28;20032;-81
2023/05/08 06:55:22;;;;;;;8.82;4.03;;;;;;;;;;5030245;28;20037;-81
2023/05/08 06:57:48;;;;;;;7.38;4.00;;;;;;;;;;5030194;28;20021;-81
2023/05/08 07:00:15;;;;;;;8.10;3.75;;;;;;;;;;5030452;28;20076;-81
2023/05/08 07:02:41;;;;;;;7.68;4.28;;;;;;;;;;5035802;28;20026;-80
2023/05/08 07:05:07;;;;;;;8.45;4.70;;;;;;;;;;5036390;28;20060;-81
2023/05/08 07:07:33;;;;;;;8.15;4.68;;;;;;;;;;5030520;28;20034;-81
2023/05/08 07:09:59;;;;;;;8.20;3.97;;;;;;;;;;5038260;28;20057;-81
2023/05/08 07:12:25;;;;;;;7.13;3.78;;;;;;;;;;5047146;28;20425;-81
2023/05/08 07:14:51;;;;;;;8.18;4.18;;;;;;;;;;5032487;28;20061;-82
2023/05/08 07:17:17;;;;;;;7.75;3.90;;;;;;;;;;5027585;28;20521;-81
2023/05/08 07:19:43;;;;;;;9.27;4.55;;;;;;;;;;5034067;28;20527;-81
2023/05/08 07:22:09;;;;;;;7.85;4.00;;;;;;;;;;5028315;28;20033;-81
2023/05/08 07:24:35;;;;;;;9.98;5.35;;;16.10;99.90;;;;;;5030623;28;20124;-81
2023/05/08 07:27:01;;;;;;;10.15;5.20;;;;;;;;;;5028202;28;20116;-81
2023/05/08 07:29:27;;;;;;;12.38;4.72;;;;;;;;;;5029470;28;20045;-81
2023/05/08 07:31:53;;;;;;;9.95;4.50;;;;;;;;;;5027300;28;20056;-81
2023/05/08 07:34:19;;;;;;;7.47;4.20;;;;;;;;;;5033443;28;20090;-82
2023/05/08 07:36:45;;;;;;;12.65;4.70;;;;;;;;;;5030106;28;20034;-82
2023/05/08 07:39:11;;;;;;;7.20;4.47;;;;;;;;;;5026578;28;20045;-81
2023/05/08 07:41:39;;;;;;;9.05;4.50;;;;;;;;;;5026951;28;20026;-81
2023/05/08 07:44:05;;;;;;;8.98;4.63;;;;;;;;;;5030735;28;20040;-82
2023/05/08 07:46:31;;;;;;;6.72;3.92;;;;;;;;;;5023020;28;20478;-82
2023/05/08 07:48:57;;;;;;;9.98;4.63;;;;;;;;;;5027133;28;20100;-82
2023/05/08 07:51:23;;;;;;;10.00;4.35;;;;;;;;;;5028261;28;20029;-82
2023/05/08 07:53:50;;;;;;;8.18;4.03;;;;;;;;;;5029302;28;20374;-82
2023/05/08 07:56:16;;;;;;;8.35;4.53;;;;;;;;;;5030502;28;20072;-82
2023/05/08 07:58:41;;;;;;;7.80;4.15;;;16.20;99.90;;;;;;5029912;28;20021;-81
2023/05/08 08:01:07;;;;;;;6.78;4.18;;;;;;;;;;5037276;28;20029;-80
2023/05/08 08:03:33;;;;;;;7.00;4.00;;;;;;;;;;5048787;28;20077;-80
2023/05/08 08:05:59;;;;;;;15.77;5.90;;;;;;;;;;5045341;28;20047;-79
2023/05/08 08:08:25;;;;;;;7.53;4.32;;;;;;;;;;5037447;28;20058;-79
2023/05/08 08:10:51;;;;;;;10.05;6.22;;;;;;;;;;5033646;28;20022;-80
2023/05/08 08:13:18;;;;;;;14.18;5.80;;;;;;;;;;5032133;28;20176;-81
2023/05/08 08:15:44;;;;;;;13.65;6.07;;;;;;;;;;5027510;28;20108;-80
2023/05/08 08:18:10;;;;;;;12.05;5.32;;;;;;;;;;5035259;28;20036;-81
2023/05/08 08:20:36;;;;;;;7.00;3.75;;;;;;;;;;5032953;28;20397;-80
2023/05/08 08:23:02;;;;;;;12.45;4.25;;;;;;;;;;5027139;28;20038;-81
2023/05/08 08:25:28;;;;;;;10.68;5.47;;;;;;;;;;5041550;28;20026;-81
2023/05/08 08:27:54;;;;;;;7.75;4.18;;;;;;;;;;5027963;28;20019;-81
2023/05/08 08:30:20;;;;;;;14.55;5.50;;;;;;;;;;5028628;28;20485;-81
2023/05/08 08:32:46;;;;;;;15.30;5.97;;;;;;;;;;5029743;28;20509;-82
2023/05/08 08:35:12;;;;;;;10.95;5.43;;;15.10;99.90;;;;;;5032685;28;20021;-80
2023/05/08 08:37:38;;;;;;;9.05;4.90;;;;;;;;;;5030848;28;20079;-81
2023/05/08 08:40:05;;;;;;;11.15;4.88;;;;;;;;;;5022341;28;20524;-81
2023/05/08 08:42:31;;;;;;;8.43;4.82;;;;;;;;;;5030582;28;20026;-81
2023/05/08 08:44:57;;;;;;;6.13;3.67;;;;;;;;;;5027919;28;20049;-81
2023/05/08 08:47:27;;;;;;;10.82;5.68;;;;;;;;;;5031458;28;20026;-80
2023/05/08 08:49:54;;;;;;;7.38;4.72;;;16.30;99.90;;;;;;5029451;28;20010;-81
2023/05/08 08:52:31;;;;;;;8.55;4.50;;;16.20;99.90;;;;;;5033300;28;20506;-80
2023/05/08 08:54:59;;;;;;;10.55;5.50;;;16.30;99.90;;;;;;5028918;28;20025;-81
2023/05/08 08:57:27;;;;;;;9.15;5.07;;;15.50;99.90;;;;;;5030593;28;20044;-80
2023/05/08 08:59:54;;;;;;;9.77;4.95;;;;;;;;;;5030043;28;20027;-80
2023/05/08 09:02:21;;;;;;;10.32;5.18;;;;;;;;;;5027194;28;20071;-81
2023/05/08 09:04:49;;;;;;;9.98;5.72;;;;;;;;;;5028599;28;20385;-80
2023/05/08 09:07:17;;;;;;;12.05;6.55;;;16.50;99.90;;;;;;5025003;28;20438;-80
2023/05/08 09:09:44;;;;;;;13.52;5.65;;;;;;;;;;5029570;28;20026;-81
2023/05/08 09:12:10;;;;;;;13.77;5.30;;;;;;;;;;5025630;28;20022;-80
2023/05/08 09:14:36;;;;;;;9.32;5.07;;;;;;;;;;5028883;28;20057;-80
2023/05/08 09:17:02;;;;;;;10.07;5.68;;;;;;;;;;5026798;28;20065;-80
2023/05/08 09:19:29;;;;;;;10.20;5.47;;;;;;;;;;5029998;28;20032;-80
2023/05/08 09:21:59;;;;;;;15.90;6.65;;;16.90;99.90;;;;;;5026100;28;20040;-81
2023/05/08 09:24:49;;;;;;;10.40;6.32;;;17.60;99.90;;;;;;5026462;28;20079;-80
2023/05/08 09:27:21;;;;;;;12.68;6.38;;;;;;;;;;5026448;28;20505;-81
2023/05/08 09:29:58;;;;;;;9.90;5.70;;;;;;;;;;5028423;28;20465;-79
2023/05/08 09:32:24;;;;;;;9.77;5.68;;;;;;;;;;5029999;28;20108;-81
2023/05/08 09:34:53;;;;;;;11.73;5.40;;;17.80;99.90;;;;;;5034511;28;20053;-81
2023/05/08 09:37:19;;;;;;;9.18;5.25;;;;;;;;;;5030278;28;20030;-81
2023/05/08 09:39:46;;;;;;;9.82;5.35;;;;;;;;;;5030697;28;20039;-80
2023/05/08 09:42:12;;;;;;;12.77;5.65;;;16.70;99.90;;;;;;5032219;28;20093;-80
2023/05/08 09:44:52;;;;;;;12.57;5.80;;;17.70;99.90;;;;;;5034080;28;20244;-81
2023/05/08 09:47:23;;;;;;;23.20;6.97;;;17.10;99.90;;;;;;5028765;28;20021;-81
2023/05/08 09:49:55;;;;;;;10.45;5.47;;;16.70;99.90;;;;;;5028103;28;20025;-81
2023/05/08 09:52:22;;;;;;;11.70;5.55;;;17.30;99.90;;;;;;5032720;28;20363;-81
2023/05/08 09:54:55;;;;;;;8.90;4.88;;;17.10;99.90;;;;;;5033691;28;20033;-81
2023/05/08 09:57:21;;;;;;;15.25;7.28;;;;;;;;;;5029152;28;20517;-82
2023/05/08 09:59:47;;;;;;;9.82;5.63;;;;;;;;;;5031256;28;20033;-81
2023/05/08 10:02:15;;;;;;;9.23;5.22;;;;;;;;;;5029958;28;20064;-81
2023/05/08 10:04:41;;;;;;;10.27;5.63;;;;;;;;;;5034262;28;20017;-81
2023/05/08 10:07:08;;;;;;;12.85;5.60;;;;;;;;;;5029713;28;20033;-81
2023/05/08 10:09:34;;;;;;;9.05;5.65;;;17.10;99.90;;;;;;5026778;28;20442;-82
2023/05/08 10:12:00;;;;;;;8.70;4.97;;;;;;;;;;5029648;28;20064;-80
2023/05/08 10:14:26;;;;;;;14.43;5.40;;;;;;;;;;5024321;28;20394;-81
2023/05/08 10:16:53;;;;;;;8.75;4.82;;;;;;;;;;5030692;28;20026;-82
2023/05/08 10:19:23;;;;;;;10.30;6.40;;;17.10;99.90;;;;;;5034088;28;20072;-81
2023/05/08 10:21:51;;;;;;;12.07;5.53;;;17.70;99.90;;;;;;5033688;28;20053;-82
2023/05/08 10:24:21;;;;;;;12.10;5.65;;;;;;;;;;5038083;28;20097;-82
2023/05/08 10:27:00;;;;;;;7.43;4.25;;;;;;;;;;5029096;28;20021;-81
2023/05/08 10:29:52;;;;;;;8.80;4.38;;;18.40;99.90;;;;;;5029203;28;20017;-81
2023/05/08 10:32:23;;;;;;;9.30;4.50;;;19.20;99.90;;;;;;5038465;28;20025;-80
2023/05/08 10:34:53;;;;;;;13.32;5.43;;;18.20;99.90;;;;;;5040802;28;20044;-79
2023/05/08 10:37:19;;;;;;;10.68;5.45;;;;;;;;;;5026788;28;20026;-79
2023/05/08 10:39:46;;;;;;;8.75;5.22;;;;;;;;;;5029928;28;20099;-80
2023/05/08 10:42:13;;;;;;;8.63;5.07;;;18.20;99.90;;;;;;5029947;28;20404;-80
2023/05/08 10:44:39;;;;;;;7.82;4.82;;;;;;;;;;5027337;28;20489;-81
2023/05/08 10:47:39;;;;;;;7.80;4.60;;;19.10;99.90;;;;;;5027478;28;20552;-80
2023/05/08 10:50:32;;;;;;;8.73;5.20;;;19.10;99.90;;;;;;5041370;28;20071;-81
2023/05/08 10:52:58;;;;;;;9.48;4.68;;;;;;;;;;5030378;28;20029;-80
2023/05/08 10:55:24;;;;;;;7.63;4.20;;;;;;;;;;5027524;28;20025;-81
2023/05/08 10:58:09;;;;;;;9.55;4.93;;;19.10;99.90;;;;;;5017106;28;20034;-81
2023/05/08 11:01:02;;;;;;;13.05;6.53;;;19.00;99.90;;;;;;5022875;28;20026;-81
2023/05/08 11:03:28;;;;;;;9.57;5.40;;;;;;;;;;5025589;28;20375;-80
2023/05/08 11:05:58;;;;;;;10.07;5.82;;;;;;;;;;5029141;28;20089;-80
2023/05/08 11:08:29;;;;;;;8.95;4.75;;;18.40;99.90;;;;;;5024328;28;20021;-81
2023/05/08 11:11:01;;;;;;;9.13;5.07;;;;;;;;;;5027567;28;20192;-80
2023/05/08 11:13:34;;;;;;;7.53;5.40;;;;;;;;;;5023171;28;20029;-80
2023/05/08 11:16:00;;;;;;;10.50;5.70;;;;;;;;;;5028456;28;20025;-81
2023/05/08 11:18:26;;;;;;;8.65;4.82;;;;;;;;;;5026860;28;20084;-79
2023/05/08 11:20:59;;;;;;;9.38;5.40;;;19.50;99.90;;;;;;5024989;28;20429;-81
2023/05/08 11:23:26;;;;;;;;;;;19.50;99.90;;;;;;5025294;28;20033;-80
2023/05/08 11:26:05;;;;;;;7.68;4.78;;;;;;;;;;5023626;28;19913;-79
2023/05/08 11:28:32;;;;;;;9.98;5.65;;;;;;;;;;5023796;28;20026;-81
2023/05/08 11:31:02;;;;;;;7.82;4.80;;;;;;;;;;5025939;28;20032;-80
2023/05/08 11:33:36;;;;;;;12.32;6.45;;;;;;;;;;5025266;28;20517;-80
2023/05/08 11:36:21;;;;;;;9.20;5.10;;;18.30;99.90;;;;;;5026092;28;20075;-80
2023/05/08 11:39:14;;;;;;;10.05;5.75;;;;;;;;;;5023773;28;20256;-80
2023/05/08 11:41:40;;;;;;;9.07;5.47;;;;;;;;;;5021906;28;20133;-81
2023/05/08 11:44:20;;;;;;;12.45;6.78;;;;;;;;;;5028070;28;20033;-80
2023/05/08 11:46:50;;;;;;;10.55;5.38;;;;;;;;;;5023374;28;20034;-80
2023/05/08 11:49:17;;;;;;;8.70;4.57;;;;;;;;;;5016608;28;20050;-80
2023/05/08 11:51:48;;;;;;;8.18;4.78;;;;;;;;;;5023068;28;20025;-80
2023/05/08 11:54:18;;;;;;;9.32;5.25;;;18.00;99.90;;;;;;5020157;28;20044;-80
2023/05/08 11:56:47;;;;;;;10.50;5.53;;;;;;;;;;5023541;28;20026;-80
2023/05/08 11:59:13;;;;;;;9.50;5.30;;;;;;;;;;5026566;28;20490;-81
2023/05/08 12:01:39;;;;;;;9.82;5.60;;;;;;;;;;5031523;28;20029;-80
2023/05/08 12:04:06;;;;;;;7.43;4.40;;;;;;;;;;5026692;28;20041;-81
2023/05/08 12:06:33;;;;;;;6.97;4.25;;;18.00;99.90;;;;;;5023298;28;20067;-80
2023/05/08 12:09:00;;;;;;;7.90;4.35;;;;;;;;;;5023240;28;20032;-80
2023/05/08 12:11:26;;;;;;;9.63;6.15;;;;;;;;;;5022089;28;20025;-80
2023/05/08 12:13:52;;;;;;;15.73;8.13;;;;;;;;;;5023683;28;20048;-80
2023/05/08 12:16:20;;;;;;;9.35;5.60;;;;;;;;;;5021251;28;20026;-80
2023/05/08 12:18:45;;;;;;;9.25;5.13;;;;;;;;;;5029998;28;20592;-80
2023/05/08 12:21:12;;;;;;;9.95;5.45;;;;;;;;;;5026984;28;20113;-80
2023/05/08 12:23:37;;;;;;;6.80;4.07;;;;;;;;;;5026379;28;20149;-80
2023/05/08 12:26:03;;;;;;;11.77;5.72;;;;;;;;;;5022765;28;20334;-79
2023/05/08 12:28:33;;;;;;;10.30;5.32;;;;;;;;;;5028678;28;20045;-80
2023/05/08 12:30:59;;;;;;;21.98;7.68;;;;;;;;;;5022843;28;20033;-80
2023/05/08 12:33:25;;;;;;;12.40;5.28;;;;;;;;;;5028380;28;20025;-80
2023/05/08 12:35:51;;;;;;;12.25;6.22;;;;;;;;;;5028729;28;20041;-80
2023/05/08 12:38:17;;;;;;;12.20;6.03;;;;;;;;;;5029100;28;20033;-80
2023/05/08 12:40:44;;;;;;;17.15;8.13;;;;;;;;;;5024875;28;20402;-80
2023/05/08 12:43:11;;;;;;;14.45;6.60;;;;;;;;;;5027548;28;20033;-80
2023/05/08 12:45:39;;;;;;;16.27;6.55;;;17.80;99.90;;;;;;5028322;28;20485;-79
2023/05/08 12:48:07;;;;;;;9.45;5.03;;;18.60;99.90;;;;;;5024268;28;20119;-80
2023/05/08 12:50:39;;;;;;;8.18;4.57;;;;;;;;;;5022262;28;20045;-81
2023/05/08 12:53:06;;;;;;;8.82;4.72;;;;;;;;;;5031296;28;20167;-80
2023/05/08 12:55:34;;;;;;;8.50;4.80;;;19.10;99.90;;;;;;5022644;28;20037;-79
2023/05/08 12:58:08;;;;;;;7.85;4.65;;;;;;;;;;5017358;28;20516;-79
2023/05/08 13:00:51;;;;;;;8.15;3.72;;;19.40;99.90;;;;;;5028139;28;20041;-81
2023/05/08 13:03:24;;;;;;;4.80;3.08;;;;;;;;;;5024415;28;20025;-80
2023/05/08 13:05:51;;;;;;;7.88;4.20;;;;;;;;;;5032197;28;20141;-80
2023/05/08 13:08:17;;;;;;;9.20;5.18;;;;;;;;;;5027849;28;20116;-80
2023/05/08 13:10:46;;;;;;;9.40;5.30;;;;;;;;;;5030948;28;20060;-80
2023/05/08 13:13:13;;;;;;;8.82;4.75;;;;;;;;;;5028959;28;20033;-80
2023/05/08 13:15:39;;;;;;;9.13;4.43;;;;;;;;;;5026859;28;20028;-80
2023/05/08 13:18:06;;;;;;;6.80;4.15;;;;;;;;;;5031698;28;20413;-80
2023/05/08 13:20:32;;;;;;;6.38;3.85;;;;;;;;;;5032944;28;20440;-80
2023/05/08 13:22:58;;;;;;;10.10;4.03;;;;;;;;;;5029037;28;20040;-81
2023/05/08 13:25:24;;;;;;;7.70;3.95;;;;;;;;;;5029005;28;20021;-80
2023/05/08 13:27:50;;;;;;;12.65;6.90;;;;;;;;;;5024888;28;20022;-81
2023/05/08 13:30:16;;;;;;;8.55;5.65;;;;;;;;;;5028578;28;20033;-81
2023/05/08 13:32:42;;;;;;;8.10;3.92;;;;;;;;;;5028688;28;20013;-80
2023/05/08 13:35:09;;;;;;;5.85;3.50;;;;;;;;;;5047547;28;20089;-79
2023/05/08 13:37:35;;;;;;;6.40;4.43;;;;;;;;;;5045492;28;20021;-78
2023/05/08 13:40:01;;;;;;;5.68;3.58;;;;;;;;;;5039869;28;20404;-80
2023/05/08 13:42:26;;;;;;;7.43;4.35;;;;;;;;;;5040262;28;20030;-79
2023/05/08 13:44:53;;;;;;;6.90;4.20;;;;;;;;;;5049814;28;20034;-78
2023/05/08 13:47:19;;;;;;;9.18;4.55;;;;;;;;;;5046215;28;20041;-79
2023/05/08 13:49:46;;;;;;;6.95;4.57;;;;;;;;;;5045153;28;20499;-79
2023/05/08 13:52:12;;;;;;;6.63;4.22;;;;;;;;;;5043756;28;20089;-79
2023/05/08 13:54:38;;;;;;;8.82;4.47;;;;;;;;;;5041691;28;20105;-80
2023/05/08 13:57:04;;;;;;;6.00;4.03;;;;;;;;;;5031415;28;20056;-80
2023/05/08 13:59:31;;;;;;;7.35;4.57;;;;;;;;;;5029419;28;20018;-79
2023/05/08 14:01:57;;;;;;;8.23;4.28;;;;;;;;;;5026908;28;20032;-79
2023/05/08 14:04:23;;;;;;;7.82;4.78;;;;;;;;;;5033015;28;20025;-81
2023/05/08 14:06:49;;;;;;;7.72;4.68;;;20.30;99.90;;;;;;5033343;28;20037;-79
2023/05/08 14:09:15;;;;;;;7.63;4.80;;;;;;;;;;5028609;28;20056;-79
2023/05/08 14:11:41;;;;;;;7.88;4.25;;;;;;;;;;5028726;28;20481;-79
2023/05/08 14:14:07;;;;;;;6.70;4.05;;;;;;;;;;5029795;28;20025;-80
2023/05/08 14:16:33;;;;;;;9.65;4.70;;;;;;;;;;5030983;28;20044;-79
2023/05/08 14:19:00;;;;;;;9.98;4.85;;;;;;;;;;5026752;28;20564;-80
2023/05/08 14:21:26;;;;;;;9.95;5.28;;;;;;;;;;5023286;28;20036;-80